sensor_id;sensor_type;location;lat;lon;timestamp;pressure;altitude;pressure_sealevel;temperature;humidity
54978;BME280;40873;47.522;19.106;2022-08-19T00:02:02;99816.97;;;25.41;55.30
54978;BME280;40873;47.522;19.106;2022-08-19T00:04:32;99815.56;;;25.52;54.92
54978;BME280;40873;47.522;19.106;2022-08-19T00:07:03;99817.41;;;25.45;55.62
54978;BME280;40873;47.522;19.106;2022-08-19T00:09:30;99819.44;;;25.36;56.21
54978;BME280;40873;47.522;19.106;2022-08-19T00:11:58;99817.19;;;25.39;56.54
54978;BME280;40873;47.522;19.106;2022-08-19T00:14:26;99818.63;;;25.35;54.86
54978;BME280;40873;47.522;19.106;2022-08-19T00:16:53;99814.28;;;25.41;55.06
54978;BME280;40873;47.522;19.106;2022-08-19T00:19:21;99824.22;;;25.34;54.92
54978;BME280;40873;47.522;19.106;2022-08-19T00:21:49;99818.59;;;25.29;55.38
54978;BME280;40873;47.522;19.106;2022-08-19T00:24:16;99810.72;;;25.34;55.57
54978;BME280;40873;47.522;19.106;2022-08-19T00:26:44;99819.66;;;25.34;54.87
54978;BME280;40873;47.522;19.106;2022-08-19T00:29:14;99815.28;;;25.33;56.12
54978;BME280;40873;47.522;19.106;2022-08-19T00:31:41;99814.81;;;25.23;57.29
54978;BME280;40873;47.522;19.106;2022-08-19T00:34:10;99825.38;;;25.11;56.88
54978;BME280;40873;47.522;19.106;2022-08-19T00:36:39;99825.53;;;25.10;56.70
54978;BME280;40873;47.522;19.106;2022-08-19T00:39:07;99824.13;;;25.14;55.75
54978;BME280;40873;47.522;19.106;2022-08-19T00:41:34;99821.31;;;25.01;56.03
54978;BME280;40873;47.522;19.106;2022-08-19T00:44:10;99818.88;;;25.06;56.64
54978;BME280;40873;47.522;19.106;2022-08-19T00:46:40;99817.56;;;25.02;56.16
54978;BME280;40873;47.522;19.106;2022-08-19T00:49:15;99821.47;;;24.93;56.92
54978;BME280;40873;47.522;19.106;2022-08-19T00:51:45;99814.16;;;24.86;56.97
54978;BME280;40873;47.522;19.106;2022-08-19T00:54:14;99814.59;;;24.83;58.04
54978;BME280;40873;47.522;19.106;2022-08-19T00:56:42;99811.06;;;24.83;58.38
54978;BME280;40873;47.522;19.106;2022-08-19T00:59:09;99802.72;;;24.78;59.14
54978;BME280;40873;47.522;19.106;2022-08-19T01:01:39;99810.13;;;24.69;58.29
54978;BME280;40873;47.522;19.106;2022-08-19T01:04:07;99810.72;;;24.65;59.52
54978;BME280;40873;47.522;19.106;2022-08-19T01:06:36;99802.38;;;24.59;58.18
54978;BME280;40873;47.522;19.106;2022-08-19T01:09:05;99805.47;;;24.56;59.10
54978;BME280;40873;47.522;19.106;2022-08-19T01:11:35;99800.50;;;24.60;58.09
54978;BME280;40873;47.522;19.106;2022-08-19T01:14:03;99805.69;;;24.61;58.44
54978;BME280;40873;47.522;19.106;2022-08-19T01:16:31;99807.97;;;24.58;59.14
54978;BME280;40873;47.522;19.106;2022-08-19T01:18:59;99813.34;;;24.58;58.15
54978;BME280;40873;47.522;19.106;2022-08-19T01:21:37;99811.91;;;24.55;59.39
54978;BME280;40873;47.522;19.106;2022-08-19T01:24:07;99804.19;;;24.52;58.51
54978;BME280;40873;47.522;19.106;2022-08-19T01:26:40;99799.00;;;24.51;58.42
54978;BME280;40873;47.522;19.106;2022-08-19T01:29:09;99802.41;;;24.66;59.45
54978;BME280;40873;47.522;19.106;2022-08-19T01:31:37;99797.22;;;24.65;59.25
54978;BME280;40873;47.522;19.106;2022-08-19T01:34:06;99798.25;;;24.64;59.20
54978;BME280;40873;47.522;19.106;2022-08-19T01:36:40;99802.25;;;24.46;59.47
54978;BME280;40873;47.522;19.106;2022-08-19T01:39:11;99799.25;;;24.56;59.64
54978;BME280;40873;47.522;19.106;2022-08-19T01:41:39;99796.03;;;24.46;59.90
54978;BME280;40873;47.522;19.106;2022-08-19T01:44:08;99793.50;;;24.38;60.48
54978;BME280;40873;47.522;19.106;2022-08-19T01:46:46;99786.28;;;24.45;61.07
54978;BME280;40873;47.522;19.106;2022-08-19T01:49:15;99786.44;;;24.37;60.30
54978;BME280;40873;47.522;19.106;2022-08-19T01:51:42;99785.06;;;24.26;61.11
54978;BME280;40873;47.522;19.106;2022-08-19T01:54:11;99787.97;;;24.24;61.66
54978;BME280;40873;47.522;19.106;2022-08-19T01:56:38;99779.44;;;24.21;60.99
54978;BME280;40873;47.522;19.106;2022-08-19T01:59:10;99763.38;;;24.13;61.07
54978;BME280;40873;47.522;19.106;2022-08-19T02:01:38;99762.94;;;24.30;61.46
54978;BME280;40873;47.522;19.106;2022-08-19T02:04:05;99766.03;;;24.27;62.43
54978;BME280;40873;47.522;19.106;2022-08-19T02:06:32;99767.84;;;24.27;61.73
54978;BME280;40873;47.522;19.106;2022-08-19T02:09:00;99769.03;;;24.18;62.50
54978;BME280;40873;47.522;19.106;2022-08-19T02:11:32;99766.00;;;23.99;62.43
54978;BME280;40873;47.522;19.106;2022-08-19T02:14:00;99763.84;;;24.16;62.93
54978;BME280;40873;47.522;19.106;2022-08-19T02:16:28;99762.88;;;24.24;62.86
54978;BME280;40873;47.522;19.106;2022-08-19T02:18:57;99752.81;;;24.11;62.55
54978;BME280;40873;47.522;19.106;2022-08-19T02:21:28;99753.66;;;23.90;63.65
54978;BME280;40873;47.522;19.106;2022-08-19T02:23:56;99755.66;;;23.82;63.90
54978;BME280;40873;47.522;19.106;2022-08-19T02:26:24;99760.41;;;23.79;65.31
54978;BME280;40873;47.522;19.106;2022-08-19T02:28:53;99759.06;;;23.69;65.66
54978;BME280;40873;47.522;19.106;2022-08-19T02:31:23;99749.94;;;23.70;64.28
54978;BME280;40873;47.522;19.106;2022-08-19T02:33:52;99746.53;;;23.61;64.55
54978;BME280;40873;47.522;19.106;2022-08-19T02:36:24;99753.97;;;23.59;65.05
54978;BME280;40873;47.522;19.106;2022-08-19T02:38:51;99761.31;;;23.65;64.94
54978;BME280;40873;47.522;19.106;2022-08-19T02:41:26;99767.34;;;23.67;64.17
54978;BME280;40873;47.522;19.106;2022-08-19T02:43:55;99768.63;;;23.57;64.63
54978;BME280;40873;47.522;19.106;2022-08-19T02:46:45;99766.50;;;23.67;63.62
54978;BME280;40873;47.522;19.106;2022-08-19T02:49:14;99773.94;;;23.65;65.05
54978;BME280;40873;47.522;19.106;2022-08-19T02:51:44;99768.34;;;23.66;63.99
54978;BME280;40873;47.522;19.106;2022-08-19T02:54:13;99779.31;;;23.65;64.38
54978;BME280;40873;47.522;19.106;2022-08-19T02:56:42;99778.94;;;23.53;65.18
54978;BME280;40873;47.522;19.106;2022-08-19T02:59:10;99792.97;;;23.48;65.30
54978;BME280;40873;47.522;19.106;2022-08-19T03:01:39;99787.97;;;23.45;64.86
54978;BME280;40873;47.522;19.106;2022-08-19T03:04:12;99794.84;;;23.48;64.54
54978;BME280;40873;47.522;19.106;2022-08-19T03:06:41;99793.38;;;23.45;65.32
54978;BME280;40873;47.522;19.106;2022-08-19T03:09:09;99796.88;;;23.46;65.10
54978;BME280;40873;47.522;19.106;2022-08-19T03:11:37;99796.41;;;23.42;65.11
54978;BME280;40873;47.522;19.106;2022-08-19T03:14:06;99792.97;;;23.48;64.83
54978;BME280;40873;47.522;19.106;2022-08-19T03:16:49;99803.03;;;23.40;65.14
54978;BME280;40873;47.522;19.106;2022-08-19T03:19:18;99803.22;;;23.38;66.94
54978;BME280;40873;47.522;19.106;2022-08-19T03:21:45;99807.38;;;23.41;65.71
54978;BME280;40873;47.522;19.106;2022-08-19T03:24:14;99803.13;;;23.32;66.13
54978;BME280;40873;47.522;19.106;2022-08-19T03:26:47;99813.50;;;23.35;66.60
54978;BME280;40873;47.522;19.106;2022-08-19T03:29:14;99806.84;;;23.31;65.95
54978;BME280;40873;47.522;19.106;2022-08-19T03:32:00;99811.69;;;23.20;67.00
54978;BME280;40873;47.522;19.106;2022-08-19T03:34:32;99808.34;;;23.18;66.61
54978;BME280;40873;47.522;19.106;2022-08-19T03:37:05;99819.41;;;23.23;65.85
54978;BME280;40873;47.522;19.106;2022-08-19T03:39:33;99819.00;;;23.27;65.77
54978;BME280;40873;47.522;19.106;2022-08-19T03:42:02;99818.47;;;23.16;66.70
54978;BME280;40873;47.522;19.106;2022-08-19T03:44:49;99822.16;;;23.15;66.50
54978;BME280;40873;47.522;19.106;2022-08-19T03:47:16;99822.09;;;23.23;65.83
54978;BME280;40873;47.522;19.106;2022-08-19T03:49:44;99820.78;;;23.19;66.23
54978;BME280;40873;47.522;19.106;2022-08-19T03:52:11;99816.13;;;23.13;66.36
54978;BME280;40873;47.522;19.106;2022-08-19T03:54:38;99819.13;;;23.18;66.77
54978;BME280;40873;47.522;19.106;2022-08-19T03:57:05;99815.69;;;23.10;66.73
54978;BME280;40873;47.522;19.106;2022-08-19T03:59:33;99820.88;;;23.11;66.32
54978;BME280;40873;47.522;19.106;2022-08-19T04:02:07;99828.47;;;23.08;66.77
54978;BME280;40873;47.522;19.106;2022-08-19T04:04:37;99830.91;;;23.03;66.20
54978;BME280;40873;47.522;19.106;2022-08-19T04:07:06;99829.50;;;23.07;65.93
54978;BME280;40873;47.522;19.106;2022-08-19T04:09:34;99828.75;;;23.13;65.72
54978;BME280;40873;47.522;19.106;2022-08-19T04:12:00;99826.81;;;23.07;66.09
54978;BME280;40873;47.522;19.106;2022-08-19T04:14:29;99839.72;;;23.11;65.47
54978;BME280;40873;47.522;19.106;2022-08-19T04:17:01;99841.56;;;23.11;65.49
54978;BME280;40873;47.522;19.106;2022-08-19T04:19:30;99848.06;;;23.16;65.18
54978;BME280;40873;47.522;19.106;2022-08-19T04:21:57;99848.91;;;23.17;65.67
54978;BME280;40873;47.522;19.106;2022-08-19T04:24:25;99854.38;;;23.23;65.14
54978;BME280;40873;47.522;19.106;2022-08-19T04:26:52;99862.53;;;23.30;64.80
54978;BME280;40873;47.522;19.106;2022-08-19T04:29:22;99857.41;;;23.35;64.67
54978;BME280;40873;47.522;19.106;2022-08-19T04:31:53;99848.50;;;23.35;64.90
54978;BME280;40873;47.522;19.106;2022-08-19T04:34:23;99843.41;;;23.40;65.07
54978;BME280;40873;47.522;19.106;2022-08-19T04:36:55;99846.94;;;23.40;64.25
54978;BME280;40873;47.522;19.106;2022-08-19T04:39:29;99848.69;;;23.48;64.19
54978;BME280;40873;47.522;19.106;2022-08-19T04:42:17;99859.91;;;23.51;64.87
54978;BME280;40873;47.522;19.106;2022-08-19T04:45:04;99857.59;;;23.48;65.05
54978;BME280;40873;47.522;19.106;2022-08-19T04:47:38;99857.38;;;23.50;64.56
54978;BME280;40873;47.522;19.106;2022-08-19T04:50:25;99873.63;;;23.57;64.34
54978;BME280;40873;47.522;19.106;2022-08-19T04:52:53;99862.34;;;23.61;63.87
54978;BME280;40873;47.522;19.106;2022-08-19T04:55:22;99854.06;;;23.63;63.91
54978;BME280;40873;47.522;19.106;2022-08-19T04:57:53;99861.78;;;23.66;63.64
54978;BME280;40873;47.522;19.106;2022-08-19T05:00:20;99855.25;;;23.75;63.70
54978;BME280;40873;47.522;19.106;2022-08-19T05:02:47;99856.56;;;23.79;63.54
54978;BME280;40873;47.522;19.106;2022-08-19T05:05:16;99861.75;;;23.81;64.12
54978;BME280;40873;47.522;19.106;2022-08-19T05:07:43;99853.53;;;23.89;64.01
54978;BME280;40873;47.522;19.106;2022-08-19T05:10:10;99859.63;;;23.97;63.50
54978;BME280;40873;47.522;19.106;2022-08-19T05:12:38;99851.56;;;23.97;64.06
54978;BME280;40873;47.522;19.106;2022-08-19T05:15:06;99850.53;;;23.98;63.51
54978;BME280;40873;47.522;19.106;2022-08-19T05:17:35;99863.91;;;24.06;63.12
54978;BME280;40873;47.522;19.106;2022-08-19T05:20:06;99858.19;;;24.16;63.41
54978;BME280;40873;47.522;19.106;2022-08-19T05:22:52;99855.75;;;24.21;63.43
54978;BME280;40873;47.522;19.106;2022-08-19T05:25:21;99864.91;;;24.27;63.98
54978;BME280;40873;47.522;19.106;2022-08-19T05:27:48;99856.44;;;24.30;63.08
54978;BME280;40873;47.522;19.106;2022-08-19T05:30:16;99867.03;;;24.31;62.27
54978;BME280;40873;47.522;19.106;2022-08-19T05:32:43;99848.72;;;24.42;62.41
54978;BME280;40873;47.522;19.106;2022-08-19T05:35:10;99849.59;;;24.49;60.96
54978;BME280;40873;47.522;19.106;2022-08-19T05:37:38;99853.81;;;24.58;62.70
54978;BME280;40873;47.522;19.106;2022-08-19T05:40:08;99861.75;;;24.66;61.73
54978;BME280;40873;47.522;19.106;2022-08-19T05:42:36;99855.38;;;24.74;60.05
54978;BME280;40873;47.522;19.106;2022-08-19T05:45:03;99861.44;;;24.76;62.22
54978;BME280;40873;47.522;19.106;2022-08-19T05:47:31;99859.47;;;24.91;61.17
54978;BME280;40873;47.522;19.106;2022-08-19T05:49:59;99860.97;;;25.00;61.50
54978;BME280;40873;47.522;19.106;2022-08-19T05:52:30;99856.25;;;25.09;58.92
54978;BME280;40873;47.522;19.106;2022-08-19T05:54:59;99867.94;;;25.16;59.08
54978;BME280;40873;47.522;19.106;2022-08-19T05:57:26;99855.09;;;25.18;59.91
54978;BME280;40873;47.522;19.106;2022-08-19T05:59:55;99862.63;;;25.29;59.34
54978;BME280;40873;47.522;19.106;2022-08-19T06:02:26;99860.41;;;25.39;59.15
54978;BME280;40873;47.522;19.106;2022-08-19T06:04:53;99853.78;;;25.49;58.26
54978;BME280;40873;47.522;19.106;2022-08-19T06:07:20;99861.91;;;25.55;57.71
54978;BME280;40873;47.522;19.106;2022-08-19T06:09:47;99868.16;;;25.62;57.74
54978;BME280;40873;47.522;19.106;2022-08-19T06:12:25;99866.81;;;25.73;57.33
54978;BME280;40873;47.522;19.106;2022-08-19T06:14:55;99863.09;;;25.81;57.04
54978;BME280;40873;47.522;19.106;2022-08-19T06:17:30;99865.16;;;25.85;56.46
54978;BME280;40873;47.522;19.106;2022-08-19T06:19:58;99848.13;;;25.91;56.14
54978;BME280;40873;47.522;19.106;2022-08-19T06:22:26;99850.66;;;26.06;56.02
54978;BME280;40873;47.522;19.106;2022-08-19T06:24:54;99854.19;;;26.13;56.94
54978;BME280;40873;47.522;19.106;2022-08-19T06:27:22;99852.56;;;26.26;55.49
54978;BME280;40873;47.522;19.106;2022-08-19T06:29:49;99857.34;;;26.30;55.67
54978;BME280;40873;47.522;19.106;2022-08-19T06:32:18;99858.03;;;26.45;54.97
54978;BME280;40873;47.522;19.106;2022-08-19T06:34:48;99842.41;;;26.47;53.93
54978;BME280;40873;47.522;19.106;2022-08-19T06:37:15;99836.38;;;26.65;53.97
54978;BME280;40873;47.522;19.106;2022-08-19T06:39:43;99828.88;;;26.74;54.16
54978;BME280;40873;47.522;19.106;2022-08-19T06:42:11;99833.00;;;26.83;52.75
54978;BME280;40873;47.522;19.106;2022-08-19T06:44:41;99843.19;;;26.94;53.50
54978;BME280;40873;47.522;19.106;2022-08-19T06:47:18;99847.78;;;27.14;53.30
54978;BME280;40873;47.522;19.106;2022-08-19T06:49:54;99841.53;;;27.20;51.70
54978;BME280;40873;47.522;19.106;2022-08-19T06:52:27;99843.31;;;27.32;51.15
54978;BME280;40873;47.522;19.106;2022-08-19T06:54:54;99847.72;;;27.34;51.05
54978;BME280;40873;47.522;19.106;2022-08-19T06:57:25;99844.09;;;27.46;51.13
54978;BME280;40873;47.522;19.106;2022-08-19T06:59:53;99847.41;;;27.62;51.54
54978;BME280;40873;47.522;19.106;2022-08-19T07:02:20;99841.94;;;27.75;50.85
54978;BME280;40873;47.522;19.106;2022-08-19T07:04:47;99842.91;;;27.87;49.08
54978;BME280;40873;47.522;19.106;2022-08-19T07:07:20;99838.06;;;27.96;49.77
54978;BME280;40873;47.522;19.106;2022-08-19T07:09:48;99839.25;;;28.06;49.04
54978;BME280;40873;47.522;19.106;2022-08-19T07:12:28;99845.81;;;28.24;48.57
54978;BME280;40873;47.522;19.106;2022-08-19T07:14:57;99861.34;;;28.42;50.05
54978;BME280;40873;47.522;19.106;2022-08-19T07:17:26;99857.84;;;28.34;49.11
54978;BME280;40873;47.522;19.106;2022-08-19T07:19:53;99869.88;;;28.45;48.20
54978;BME280;40873;47.522;19.106;2022-08-19T07:22:22;99869.97;;;28.57;48.25
54978;BME280;40873;47.522;19.106;2022-08-19T07:24:51;99873.09;;;28.60;49.09
54978;BME280;40873;47.522;19.106;2022-08-19T07:27:19;99869.50;;;28.66;47.36
54978;BME280;40873;47.522;19.106;2022-08-19T07:29:52;99858.53;;;28.80;48.71
54978;BME280;40873;47.522;19.106;2022-08-19T07:32:24;99859.66;;;28.90;46.69
54978;BME280;40873;47.522;19.106;2022-08-19T07:34:54;99861.28;;;28.98;46.22
54978;BME280;40873;47.522;19.106;2022-08-19T07:37:24;99864.09;;;29.10;47.36
54978;BME280;40873;47.522;19.106;2022-08-19T07:40:00;99852.50;;;29.21;46.33
54978;BME280;40873;47.522;19.106;2022-08-19T07:42:27;99856.34;;;29.32;46.23
54978;BME280;40873;47.522;19.106;2022-08-19T07:44:57;99857.84;;;29.46;44.58
54978;BME280;40873;47.522;19.106;2022-08-19T07:47:24;99849.19;;;29.56;45.79
54978;BME280;40873;47.522;19.106;2022-08-19T07:50:11;99847.72;;;29.71;45.47
54978;BME280;40873;47.522;19.106;2022-08-19T07:52:38;99849.28;;;29.79;45.07
54978;BME280;40873;47.522;19.106;2022-08-19T07:55:08;99848.41;;;29.97;44.09
54978;BME280;40873;47.522;19.106;2022-08-19T07:57:55;99839.38;;;30.15;43.96
54978;BME280;40873;47.522;19.106;2022-08-19T08:00:25;99841.22;;;30.33;44.42
54978;BME280;40873;47.522;19.106;2022-08-19T08:02:53;99835.75;;;30.44;42.73
54978;BME280;40873;47.522;19.106;2022-08-19T08:05:22;99838.75;;;30.66;43.05
54978;BME280;40873;47.522;19.106;2022-08-19T08:08:10;99848.84;;;30.89;41.86
54978;BME280;40873;47.522;19.106;2022-08-19T08:10:56;99849.66;;;31.13;41.51
54978;BME280;40873;47.522;19.106;2022-08-19T08:13:24;99842.31;;;31.25;41.56
54978;BME280;40873;47.522;19.106;2022-08-19T08:15:52;99842.03;;;31.50;40.95
54978;BME280;40873;47.522;19.106;2022-08-19T08:18:25;99847.44;;;31.62;39.80
54978;BME280;40873;47.522;19.106;2022-08-19T08:20:54;99860.34;;;31.78;37.16
54978;BME280;40873;47.522;19.106;2022-08-19T08:23:22;99852.91;;;31.90;36.31
54978;BME280;40873;47.522;19.106;2022-08-19T08:25:54;99855.44;;;31.92;36.88
54978;BME280;40873;47.522;19.106;2022-08-19T08:28:21;99859.50;;;32.06;37.55
54978;BME280;40873;47.522;19.106;2022-08-19T08:30:49;99850.00;;;32.09;36.57
54978;BME280;40873;47.522;19.106;2022-08-19T08:33:19;99857.19;;;32.32;38.24
54978;BME280;40873;47.522;19.106;2022-08-19T08:36:01;99850.34;;;32.29;38.14
54978;BME280;40873;47.522;19.106;2022-08-19T08:38:31;99846.16;;;32.38;36.02
54978;BME280;40873;47.522;19.106;2022-08-19T08:43:52;99843.59;;;32.49;37.56
54978;BME280;40873;47.522;19.106;2022-08-19T08:46:38;99850.69;;;32.66;37.56
54978;BME280;40873;47.522;19.106;2022-08-19T08:51:46;99832.50;;;32.72;36.81
54978;BME280;40873;47.522;19.106;2022-08-19T08:54:30;99831.09;;;32.86;35.70
54978;BME280;40873;47.522;19.106;2022-08-19T08:57:03;99816.50;;;32.81;36.33
54978;BME280;40873;47.522;19.106;2022-08-19T08:59:35;99812.59;;;33.10;36.89
54978;BME280;40873;47.522;19.106;2022-08-19T09:02:04;99801.50;;;33.22;35.97
54978;BME280;40873;47.522;19.106;2022-08-19T09:04:31;99806.06;;;33.16;35.50
54978;BME280;40873;47.522;19.106;2022-08-19T09:12:39;99816.03;;;33.66;34.03
54978;BME280;40873;47.522;19.106;2022-08-19T09:15:13;99819.72;;;33.82;34.55
54978;BME280;40873;47.522;19.106;2022-08-19T09:17:41;99815.31;;;34.03;34.81
54978;BME280;40873;47.522;19.106;2022-08-19T09:22:37;99809.72;;;33.93;33.58
54978;BME280;40873;47.522;19.106;2022-08-19T09:25:06;99806.69;;;34.21;34.65
54978;BME280;40873;47.522;19.106;2022-08-19T09:27:36;99796.13;;;34.30;33.90
54978;BME280;40873;47.522;19.106;2022-08-19T09:30:21;99800.66;;;34.19;34.02
54978;BME280;40873;47.522;19.106;2022-08-19T09:32:50;99794.81;;;34.38;33.27
54978;BME280;40873;47.522;19.106;2022-08-19T09:35:24;99800.75;;;34.61;33.78
54978;BME280;40873;47.522;19.106;2022-08-19T09:37:55;99791.66;;;34.93;31.48
54978;BME280;40873;47.522;19.106;2022-08-19T09:40:27;99796.16;;;35.25;31.34
54978;BME280;40873;47.522;19.106;2022-08-19T09:42:56;99787.38;;;35.17;29.96
54978;BME280;40873;47.522;19.106;2022-08-19T09:45:24;99791.75;;;35.13;31.23
54978;BME280;40873;47.522;19.106;2022-08-19T09:47:52;99779.53;;;35.41;31.07
54978;BME280;40873;47.522;19.106;2022-08-19T09:50:21;99772.97;;;35.42;30.95
54978;BME280;40873;47.522;19.106;2022-08-19T09:52:49;99769.06;;;35.38;30.04
54978;BME280;40873;47.522;19.106;2022-08-19T09:55:24;99765.03;;;35.51;31.13
54978;BME280;40873;47.522;19.106;2022-08-19T09:57:59;99763.16;;;35.77;30.01
54978;BME280;40873;47.522;19.106;2022-08-19T10:00:26;99764.84;;;36.14;30.26
54978;BME280;40873;47.522;19.106;2022-08-19T10:02:53;99763.75;;;36.20;29.96
54978;BME280;40873;47.522;19.106;2022-08-19T10:05:20;99753.88;;;35.99;29.23
54978;BME280;40873;47.522;19.106;2022-08-19T10:08:09;99753.84;;;36.09;28.82
54978;BME280;40873;47.522;19.106;2022-08-19T10:10:43;99740.41;;;36.12;29.52
54978;BME280;40873;47.522;19.106;2022-08-19T10:13:14;99761.53;;;36.02;29.34
54978;BME280;40873;47.522;19.106;2022-08-19T10:15:42;99748.09;;;36.10;29.77
54978;BME280;40873;47.522;19.106;2022-08-19T10:18:14;99760.16;;;36.30;29.77
54978;BME280;40873;47.522;19.106;2022-08-19T10:20:44;99757.69;;;36.33;29.37
54978;BME280;40873;47.522;19.106;2022-08-19T10:23:19;99756.88;;;36.43;29.15
54978;BME280;40873;47.522;19.106;2022-08-19T10:25:47;99740.63;;;36.62;28.95
54978;BME280;40873;47.522;19.106;2022-08-19T10:28:14;99739.28;;;36.54;28.76
54978;BME280;40873;47.522;19.106;2022-08-19T10:30:41;99740.03;;;36.75;27.22
54978;BME280;40873;47.522;19.106;2022-08-19T10:33:09;99745.78;;;36.78;27.50
54978;BME280;40873;47.522;19.106;2022-08-19T10:35:37;99748.53;;;36.89;27.81
54978;BME280;40873;47.522;19.106;2022-08-19T10:38:23;99730.94;;;36.85;28.32
54978;BME280;40873;47.522;19.106;2022-08-19T10:40:58;99746.31;;;37.01;27.89
54978;BME280;40873;47.522;19.106;2022-08-19T10:43:25;99736.41;;;37.00;28.30
54978;BME280;40873;47.522;19.106;2022-08-19T10:45:53;99736.81;;;37.27;26.11
54978;BME280;40873;47.522;19.106;2022-08-19T10:48:22;99744.16;;;37.47;26.27
54978;BME280;40873;47.522;19.106;2022-08-19T10:50:49;99740.03;;;37.45;26.77
54978;BME280;40873;47.522;19.106;2022-08-19T10:53:34;99743.72;;;37.69;26.66
54978;BME280;40873;47.522;19.106;2022-08-19T10:56:02;99739.63;;;38.06;26.98
54978;BME280;40873;47.522;19.106;2022-08-19T10:58:47;99733.66;;;37.94;25.79
54978;BME280;40873;47.522;19.106;2022-08-19T11:01:15;99747.41;;;37.99;25.28
54978;BME280;40873;47.522;19.106;2022-08-19T11:03:41;99738.84;;;38.00;26.28
54978;BME280;40873;47.522;19.106;2022-08-19T11:06:08;99736.66;;;38.31;26.04
54978;BME280;40873;47.522;19.106;2022-08-19T11:08:36;99733.97;;;38.21;25.61
54978;BME280;40873;47.522;19.106;2022-08-19T11:11:08;99740.16;;;38.08;26.18
54978;BME280;40873;47.522;19.106;2022-08-19T11:13:38;99746.97;;;38.16;25.42
54978;BME280;40873;47.522;19.106;2022-08-19T11:16:14;99722.63;;;37.99;26.32
54978;BME280;40873;47.522;19.106;2022-08-19T11:18:44;99735.16;;;38.10;26.66
54978;BME280;40873;47.522;19.106;2022-08-19T11:21:16;99739.47;;;38.21;26.85
54978;BME280;40873;47.522;19.106;2022-08-19T11:23:53;99739.81;;;38.15;25.98
54978;BME280;40873;47.522;19.106;2022-08-19T11:26:21;99732.94;;;38.46;26.62
54978;BME280;40873;47.522;19.106;2022-08-19T11:28:49;99732.16;;;39.12;26.29
54978;BME280;40873;47.522;19.106;2022-08-19T11:31:20;99724.97;;;38.92;25.16
54978;BME280;40873;47.522;19.106;2022-08-19T11:33:49;99725.50;;;39.37;24.16
54978;BME280;40873;47.522;19.106;2022-08-19T11:36:21;99725.78;;;39.55;23.78
54978;BME280;40873;47.522;19.106;2022-08-19T11:38:49;99727.69;;;39.59;23.22
54978;BME280;40873;47.522;19.106;2022-08-19T11:41:19;99735.91;;;39.64;23.15
54978;BME280;40873;47.522;19.106;2022-08-19T11:43:46;99728.06;;;39.71;24.39
54978;BME280;40873;47.522;19.106;2022-08-19T11:46:15;99727.97;;;39.58;24.12
54978;BME280;40873;47.522;19.106;2022-08-19T11:48:43;99723.34;;;39.72;23.09
54978;BME280;40873;47.522;19.106;2022-08-19T11:51:15;99714.31;;;39.85;22.70
54978;BME280;40873;47.522;19.106;2022-08-19T11:53:42;99719.09;;;39.23;23.79
54978;BME280;40873;47.522;19.106;2022-08-19T11:56:09;99727.72;;;39.35;24.39
54978;BME280;40873;47.522;19.106;2022-08-19T11:58:36;99727.63;;;39.64;22.38
54978;BME280;40873;47.522;19.106;2022-08-19T12:01:13;99710.13;;;40.20;23.70
54978;BME280;40873;47.522;19.106;2022-08-19T12:03:45;99704.59;;;40.34;22.16
54978;BME280;40873;47.522;19.106;2022-08-19T12:06:15;99710.94;;;40.21;21.80
54978;BME280;40873;47.522;19.106;2022-08-19T12:08:43;99701.44;;;39.57;22.40
54978;BME280;40873;47.522;19.106;2022-08-19T12:11:12;99702.22;;;40.14;22.39
54978;BME280;40873;47.522;19.106;2022-08-19T12:13:41;99706.56;;;40.34;22.66
54978;BME280;40873;47.522;19.106;2022-08-19T12:16:16;99692.56;;;40.71;22.46
54978;BME280;40873;47.522;19.106;2022-08-19T12:18:44;99700.94;;;40.52;22.12
54978;BME280;40873;47.522;19.106;2022-08-19T12:21:16;99702.41;;;40.04;22.99
54978;BME280;40873;47.522;19.106;2022-08-19T12:23:44;99701.69;;;39.41;22.52
54978;BME280;40873;47.522;19.106;2022-08-19T12:26:18;99697.13;;;39.13;22.77
54978;BME280;40873;47.522;19.106;2022-08-19T12:28:45;99706.78;;;39.15;23.02
54978;BME280;40873;47.522;19.106;2022-08-19T12:31:12;99701.78;;;39.36;22.31
54978;BME280;40873;47.522;19.106;2022-08-19T12:33:41;99697.53;;;39.95;22.48
54978;BME280;40873;47.522;19.106;2022-08-19T12:36:10;99698.84;;;40.17;22.01
54978;BME280;40873;47.522;19.106;2022-08-19T12:38:38;99701.53;;;39.70;22.63
54978;BME280;40873;47.522;19.106;2022-08-19T12:41:07;99703.19;;;39.34;22.83
54978;BME280;40873;47.522;19.106;2022-08-19T12:43:36;99698.38;;;39.02;23.12
54978;BME280;40873;47.522;19.106;2022-08-19T12:46:05;99688.31;;;39.11;22.60
54978;BME280;40873;47.522;19.106;2022-08-19T12:48:37;99683.38;;;39.32;22.45
54978;BME280;40873;47.522;19.106;2022-08-19T12:51:07;99673.22;;;39.46;22.08
54978;BME280;40873;47.522;19.106;2022-08-19T12:53:35;99679.88;;;38.83;22.95
54978;BME280;40873;47.522;19.106;2022-08-19T12:56:06;99677.59;;;39.09;22.92
54978;BME280;40873;47.522;19.106;2022-08-19T12:58:41;99675.59;;;39.34;22.65
54978;BME280;40873;47.522;19.106;2022-08-19T13:01:19;99665.94;;;40.01;22.00
54978;BME280;40873;47.522;19.106;2022-08-19T13:03:49;99665.75;;;39.09;22.78
54978;BME280;40873;47.522;19.106;2022-08-19T13:06:20;99665.66;;;39.14;22.14
54978;BME280;40873;47.522;19.106;2022-08-19T13:08:48;99659.09;;;39.29;22.01
54978;BME280;40873;47.522;19.106;2022-08-19T13:11:18;99665.94;;;39.12;22.33
54978;BME280;40873;47.522;19.106;2022-08-19T13:13:47;99660.69;;;39.86;22.39
54978;BME280;40873;47.522;19.106;2022-08-19T13:16:15;99658.78;;;40.00;21.60
54978;BME280;40873;47.522;19.106;2022-08-19T13:18:44;99660.53;;;39.45;21.85
54978;BME280;40873;47.522;19.106;2022-08-19T13:21:13;99658.28;;;39.47;22.12